sensor_id;sensor_type;location;lat;lon;timestamp;pressure;altitude;pressure_sealevel;temperature;humidity
31285;BME280;56605;51.516;6.742;2023-04-08T00:02:24;102032.63;;;6.62;100.00
31285;BME280;56605;51.516;6.742;2023-04-08T00:04:49;102028.91;;;6.52;100.00
31285;BME280;56605;51.516;6.742;2023-04-08T00:07:15;102034.66;;;6.58;100.00
31285;BME280;56605;51.516;6.742;2023-04-08T00:09:40;102036.66;;;6.55;100.00
31285;BME280;56605;51.516;6.742;2023-04-08T00:12:05;102041.47;;;6.50;100.00
31285;BME280;56605;51.516;6.742;2023-04-08T00:14:31;102046.56;;;6.53;100.00
31285;BME280;56605;51.516;6.742;2023-04-08T00:16:56;102050.72;;;6.44;100.00
31285;BME280;56605;51.516;6.742;2023-04-08T00:19:21;102051.31;;;6.47;100.00
31285;BME280;56605;51.516;6.742;2023-04-08T00:21:47;102052.06;;;6.50;100.00
31285;BME280;56605;51.516;6.742;2023-04-08T00:24:12;102052.19;;;6.48;100.00
31285;BME280;56605;51.516;6.742;2023-04-08T00:26:38;102054.06;;;6.59;100.00
31285;BME280;56605;51.516;6.742;2023-04-08T00:29:03;102043.47;;;6.46;100.00
31285;BME280;56605;51.516;6.742;2023-04-08T00:31:28;102052.63;;;6.42;100.00
31285;BME280;56605;51.516;6.742;2023-04-08T00:33:54;102060.56;;;6.42;100.00
31285;BME280;56605;51.516;6.742;2023-04-08T00:36:20;102058.22;;;6.37;100.00
31285;BME280;56605;51.516;6.742;2023-04-08T00:38:45;102065.56;;;6.46;100.00
31285;BME280;56605;51.516;6.742;2023-04-08T00:41:10;102056.94;;;6.43;100.00
31285;BME280;56605;51.516;6.742;2023-04-08T00:43:35;102060.47;;;6.43;100.00
31285;BME280;56605;51.516;6.742;2023-04-08T00:46:01;102062.56;;;6.38;100.00
31285;BME280;56605;51.516;6.742;2023-04-08T00:48:26;102057.59;;;6.46;100.00
31285;BME280;56605;51.516;6.742;2023-04-08T00:50:51;102058.44;;;6.60;100.00
31285;BME280;56605;51.516;6.742;2023-04-08T00:53:18;102053.66;;;6.52;100.00
31285;BME280;56605;51.516;6.742;2023-04-08T00:55:44;102075.53;;;6.43;100.00
31285;BME280;56605;51.516;6.742;2023-04-08T00:58:09;102066.41;;;6.47;100.00
31285;BME280;56605;51.516;6.742;2023-04-08T01:00:39;102070.75;;;6.48;100.00
31285;BME280;56605;51.516;6.742;2023-04-08T01:03:15;102079.00;;;6.56;100.00
31285;BME280;56605;51.516;6.742;2023-04-08T01:06:04;102076.34;;;6.56;100.00
31285;BME280;56605;51.516;6.742;2023-04-08T01:08:37;102065.97;;;6.66;100.00
31285;BME280;56605;51.516;6.742;2023-04-08T01:11:09;102070.53;;;6.64;100.00
31285;BME280;56605;51.516;6.742;2023-04-08T01:13:37;102066.06;;;6.65;100.00
31285;BME280;56605;51.516;6.742;2023-04-08T01:16:04;102080.28;;;6.64;100.00
31285;BME280;56605;51.516;6.742;2023-04-08T01:18:30;102069.66;;;6.64;100.00
31285;BME280;56605;51.516;6.742;2023-04-08T01:20:57;102081.03;;;6.40;100.00
31285;BME280;56605;51.516;6.742;2023-04-08T01:23:40;102077.25;;;6.44;100.00
31285;BME280;56605;51.516;6.742;2023-04-08T01:26:07;102071.06;;;6.43;100.00
31285;BME280;56605;51.516;6.742;2023-04-08T01:28:34;102068.53;;;6.42;100.00
31285;BME280;56605;51.516;6.742;2023-04-08T01:31:01;102061.66;;;6.77;100.00
31285;BME280;56605;51.516;6.742;2023-04-08T01:33:27;102070.41;;;6.66;100.00
31285;BME280;56605;51.516;6.742;2023-04-08T01:35:54;102071.78;;;6.71;100.00
31285;BME280;56605;51.516;6.742;2023-04-08T01:38:22;102069.63;;;6.77;100.00
31285;BME280;56605;51.516;6.742;2023-04-08T01:40:50;102074.22;;;6.75;100.00
31285;BME280;56605;51.516;6.742;2023-04-08T01:43:17;102071.03;;;6.69;100.00
31285;BME280;56605;51.516;6.742;2023-04-08T01:45:44;102074.34;;;6.34;100.00
31285;BME280;56605;51.516;6.742;2023-04-08T01:48:12;102073.78;;;6.68;100.00
31285;BME280;56605;51.516;6.742;2023-04-08T01:50:40;102074.34;;;6.34;100.00
31285;BME280;56605;51.516;6.742;2023-04-08T01:53:08;102070.31;;;6.41;100.00
31285;BME280;56605;51.516;6.742;2023-04-08T01:55:35;102075.44;;;6.31;100.00
31285;BME280;56605;51.516;6.742;2023-04-08T01:58:01;102075.63;;;6.28;100.00
31285;BME280;56605;51.516;6.742;2023-04-08T02:00:30;102079.88;;;6.31;100.00
31285;BME280;56605;51.516;6.742;2023-04-08T02:02:56;102079.13;;;6.42;100.00
31285;BME280;56605;51.516;6.742;2023-04-08T02:05:22;102086.34;;;6.27;100.00
31285;BME280;56605;51.516;6.742;2023-04-08T02:07:47;102084.13;;;6.33;100.00
31285;BME280;56605;51.516;6.742;2023-04-08T02:10:13;102086.16;;;6.56;100.00
31285;BME280;56605;51.516;6.742;2023-04-08T02:12:39;102088.88;;;6.41;100.00
31285;BME280;56605;51.516;6.742;2023-04-08T02:15:05;102085.00;;;6.47;100.00
31285;BME280;56605;51.516;6.742;2023-04-08T02:17:35;102080.38;;;6.62;100.00
31285;BME280;56605;51.516;6.742;2023-04-08T02:20:12;102079.47;;;6.11;100.00
31285;BME280;56605;51.516;6.742;2023-04-08T02:23:08;102079.03;;;6.04;100.00
31285;BME280;56605;51.516;6.742;2023-04-08T02:25:37;102089.38;;;5.94;100.00
31285;BME280;56605;51.516;6.742;2023-04-08T02:28:05;102080.56;;;5.94;100.00
31285;BME280;56605;51.516;6.742;2023-04-08T02:30:34;102087.34;;;5.85;100.00
31285;BME280;56605;51.516;6.742;2023-04-08T02:33:00;102084.59;;;5.87;100.00
31285;BME280;56605;51.516;6.742;2023-04-08T02:35:27;102080.25;;;5.86;100.00
31285;BME280;56605;51.516;6.742;2023-04-08T02:37:53;102085.53;;;5.73;100.00
31285;BME280;56605;51.516;6.742;2023-04-08T02:40:22;102082.00;;;5.72;100.00
31285;BME280;56605;51.516;6.742;2023-04-08T02:42:47;102094.97;;;5.77;100.00
31285;BME280;56605;51.516;6.742;2023-04-08T02:45:13;102083.69;;;5.73;100.00
31285;BME280;56605;51.516;6.742;2023-04-08T02:47:38;102089.97;;;5.72;100.00
31285;BME280;56605;51.516;6.742;2023-04-08T02:50:03;102094.63;;;5.68;100.00
31285;BME280;56605;51.516;6.742;2023-04-08T02:52:29;102091.13;;;5.68;100.00
31285;BME280;56605;51.516;6.742;2023-04-08T02:54:54;102089.28;;;5.55;100.00
31285;BME280;56605;51.516;6.742;2023-04-08T02:57:20;102088.25;;;5.58;100.00
31285;BME280;56605;51.516;6.742;2023-04-08T02:59:45;102091.03;;;5.69;100.00
31285;BME280;56605;51.516;6.742;2023-04-08T03:02:11;102089.38;;;5.54;100.00
31285;BME280;56605;51.516;6.742;2023-04-08T03:04:36;102085.78;;;5.55;100.00
31285;BME280;56605;51.516;6.742;2023-04-08T03:07:01;102096.53;;;5.66;100.00
31285;BME280;56605;51.516;6.742;2023-04-08T03:09:26;102088.34;;;5.56;100.00
31285;BME280;56605;51.516;6.742;2023-04-08T03:11:52;102098.47;;;5.77;100.00
31285;BME280;56605;51.516;6.742;2023-04-08T03:14:19;102101.16;;;5.90;100.00
31285;BME280;56605;51.516;6.742;2023-04-08T03:16:45;102099.81;;;6.11;100.00
31285;BME280;56605;51.516;6.742;2023-04-08T03:19:10;102096.56;;;5.79;100.00
31285;BME280;56605;51.516;6.742;2023-04-08T03:21:35;102102.34;;;5.71;100.00
31285;BME280;56605;51.516;6.742;2023-04-08T03:24:00;102095.44;;;5.56;100.00
31285;BME280;56605;51.516;6.742;2023-04-08T03:26:26;102097.75;;;5.48;100.00
31285;BME280;56605;51.516;6.742;2023-04-08T03:28:51;102094.63;;;5.41;100.00
31285;BME280;56605;51.516;6.742;2023-04-08T03:31:17;102097.91;;;5.31;100.00
31285;BME280;56605;51.516;6.742;2023-04-08T03:33:45;102093.63;;;5.29;100.00
31285;BME280;56605;51.516;6.742;2023-04-08T03:36:10;102093.56;;;5.43;100.00
31285;BME280;56605;51.516;6.742;2023-04-08T03:38:36;102101.66;;;5.27;100.00
31285;BME280;56605;51.516;6.742;2023-04-08T03:41:01;102105.56;;;5.22;100.00
31285;BME280;56605;51.516;6.742;2023-04-08T03:43:27;102104.09;;;5.86;100.00
31285;BME280;56605;51.516;6.742;2023-04-08T03:45:52;102104.84;;;5.05;100.00
31285;BME280;56605;51.516;6.742;2023-04-08T03:48:17;102106.41;;;4.94;100.00
31285;BME280;56605;51.516;6.742;2023-04-08T03:50:43;102109.22;;;4.91;100.00
31285;BME280;56605;51.516;6.742;2023-04-08T03:53:08;102109.59;;;5.00;100.00
31285;BME280;56605;51.516;6.742;2023-04-08T03:55:35;102110.38;;;4.73;100.00
31285;BME280;56605;51.516;6.742;2023-04-08T03:58:01;102109.03;;;5.37;100.00
31285;BME280;56605;51.516;6.742;2023-04-08T04:00:26;102104.53;;;4.53;100.00
31285;BME280;56605;51.516;6.742;2023-04-08T04:02:51;102107.16;;;5.39;100.00
31285;BME280;56605;51.516;6.742;2023-04-08T04:05:17;102114.06;;;4.55;100.00
31285;BME280;56605;51.516;6.742;2023-04-08T04:07:42;102108.59;;;5.15;100.00
31285;BME280;56605;51.516;6.742;2023-04-08T04:10:07;102124.13;;;5.90;100.00
31285;BME280;56605;51.516;6.742;2023-04-08T04:12:34;102125.00;;;5.63;100.00
31285;BME280;56605;51.516;6.742;2023-04-08T04:14:59;102127.47;;;5.66;100.00
31285;BME280;56605;51.516;6.742;2023-04-08T04:17:25;102125.06;;;5.48;100.00
31285;BME280;56605;51.516;6.742;2023-04-08T04:19:50;102130.66;;;5.43;100.00
31285;BME280;56605;51.516;6.742;2023-04-08T04:22:16;102131.81;;;4.68;100.00
31285;BME280;56605;51.516;6.742;2023-04-08T04:24:46;102138.59;;;5.43;100.00
31285;BME280;56605;51.516;6.742;2023-04-08T04:27:11;102145.13;;;5.80;100.00
31285;BME280;56605;51.516;6.742;2023-04-08T04:29:36;102143.56;;;5.90;100.00
31285;BME280;56605;51.516;6.742;2023-04-08T04:32:02;102139.75;;;5.39;100.00
31285;BME280;56605;51.516;6.742;2023-04-08T04:34:27;102138.16;;;4.94;100.00
31285;BME280;56605;51.516;6.742;2023-04-08T04:36:52;102137.25;;;5.23;100.00
31285;BME280;56605;51.516;6.742;2023-04-08T04:39:17;102138.53;;;5.30;100.00
31285;BME280;56605;51.516;6.742;2023-04-08T04:41:43;102139.25;;;5.05;100.00
31285;BME280;56605;51.516;6.742;2023-04-08T04:44:08;102139.16;;;5.06;100.00
31285;BME280;56605;51.516;6.742;2023-04-08T04:46:34;102149.00;;;5.04;100.00
31285;BME280;56605;51.516;6.742;2023-04-08T04:48:59;102139.25;;;5.05;100.00
31285;BME280;56605;51.516;6.742;2023-04-08T04:51:24;102151.78;;;5.30;100.00
31285;BME280;56605;51.516;6.742;2023-04-08T04:53:51;102151.16;;;4.98;100.00
31285;BME280;56605;51.516;6.742;2023-04-08T04:56:16;102160.06;;;4.82;100.00
31285;BME280;56605;51.516;6.742;2023-04-08T04:58:42;102167.44;;;5.06;100.00
31285;BME280;56605;51.516;6.742;2023-04-08T05:01:07;102165.84;;;4.74;100.00
31285;BME280;56605;51.516;6.742;2023-04-08T05:03:32;102175.19;;;4.65;100.00
31285;BME280;56605;51.516;6.742;2023-04-08T05:05:58;102178.00;;;4.48;100.00
31285;BME280;56605;51.516;6.742;2023-04-08T05:08:23;102176.78;;;4.68;100.00
31285;BME280;56605;51.516;6.742;2023-04-08T05:10:48;102180.47;;;4.65;100.00
31285;BME280;56605;51.516;6.742;2023-04-08T05:13:19;102173.31;;;4.22;100.00
31285;BME280;56605;51.516;6.742;2023-04-08T05:15:44;102173.78;;;4.14;100.00
31285;BME280;56605;51.516;6.742;2023-04-08T05:18:10;102176.91;;;4.21;100.00
31285;BME280;56605;51.516;6.742;2023-04-08T05:20:36;102169.47;;;4.28;100.00
31285;BME280;56605;51.516;6.742;2023-04-08T05:23:01;102169.50;;;4.12;100.00
31285;BME280;56605;51.516;6.742;2023-04-08T05:25:26;102180.53;;;4.35;100.00
31285;BME280;56605;51.516;6.742;2023-04-08T05:27:51;102182.47;;;4.31;100.00
31285;BME280;56605;51.516;6.742;2023-04-08T05:30:17;102176.63;;;4.26;100.00
31285;BME280;56605;51.516;6.742;2023-04-08T05:32:43;102182.34;;;4.18;100.00
31285;BME280;56605;51.516;6.742;2023-04-08T05:35:08;102181.38;;;4.35;100.00
31285;BME280;56605;51.516;6.742;2023-04-08T05:37:34;102183.63;;;4.27;100.00
31285;BME280;56605;51.516;6.742;2023-04-08T05:39:59;102189.09;;;4.38;100.00
31285;BME280;56605;51.516;6.742;2023-04-08T05:42:25;102196.34;;;4.20;100.00
31285;BME280;56605;51.516;6.742;2023-04-08T05:44:51;102201.91;;;4.15;100.00
31285;BME280;56605;51.516;6.742;2023-04-08T05:47:16;102202.47;;;4.21;100.00
31285;BME280;56605;51.516;6.742;2023-04-08T05:49:41;102204.75;;;4.27;100.00
31285;BME280;56605;51.516;6.742;2023-04-08T05:52:07;102212.06;;;4.38;100.00
31285;BME280;56605;51.516;6.742;2023-04-08T05:54:32;102214.16;;;4.16;100.00
31285;BME280;56605;51.516;6.742;2023-04-08T05:56:57;102208.72;;;4.19;100.00
31285;BME280;56605;51.516;6.742;2023-04-08T05:59:23;102211.19;;;4.23;100.00
31285;BME280;56605;51.516;6.742;2023-04-08T06:01:48;102220.63;;;3.96;100.00
31285;BME280;56605;51.516;6.742;2023-04-08T06:04:13;102216.09;;;3.98;100.00
31285;BME280;56605;51.516;6.742;2023-04-08T06:06:38;102218.13;;;3.93;100.00
31285;BME280;56605;51.516;6.742;2023-04-08T06:09:04;102214.91;;;4.04;100.00
31285;BME280;56605;51.516;6.742;2023-04-08T06:11:30;102220.13;;;3.89;100.00
31285;BME280;56605;51.516;6.742;2023-04-08T06:13:55;102222.22;;;3.99;100.00
31285;BME280;56605;51.516;6.742;2023-04-08T06:16:20;102215.38;;;4.11;100.00
31285;BME280;56605;51.516;6.742;2023-04-08T06:18:46;102227.59;;;3.97;100.00
31285;BME280;56605;51.516;6.742;2023-04-08T06:21:11;102225.81;;;3.98;100.00
31285;BME280;56605;51.516;6.742;2023-04-08T06:23:36;102223.13;;;4.14;100.00
31285;BME280;56605;51.516;6.742;2023-04-08T06:26:02;102234.41;;;4.17;100.00
31285;BME280;56605;51.516;6.742;2023-04-08T06:28:30;102237.63;;;4.23;100.00
31285;BME280;56605;51.516;6.742;2023-04-08T06:30:56;102239.03;;;4.28;100.00
31285;BME280;56605;51.516;6.742;2023-04-08T06:33:21;102238.00;;;4.31;100.00
31285;BME280;56605;51.516;6.742;2023-04-08T06:35:47;102238.03;;;4.15;100.00
31285;BME280;56605;51.516;6.742;2023-04-08T06:38:12;102246.50;;;4.22;100.00
31285;BME280;56605;51.516;6.742;2023-04-08T06:40:38;102237.44;;;4.26;100.00
31285;BME280;56605;51.516;6.742;2023-04-08T06:43:04;102242.41;;;4.16;100.00
31285;BME280;56605;51.516;6.742;2023-04-08T06:45:31;102245.31;;;4.11;100.00
31285;BME280;56605;51.516;6.742;2023-04-08T06:47:56;102249.50;;;3.99;100.00
31285;BME280;56605;51.516;6.742;2023-04-08T06:50:21;102255.81;;;4.13;100.00
31285;BME280;56605;51.516;6.742;2023-04-08T06:52:47;102260.81;;;4.01;100.00
31285;BME280;56605;51.516;6.742;2023-04-08T06:55:12;102265.13;;;4.04;100.00
31285;BME280;56605;51.516;6.742;2023-04-08T06:57:37;102277.28;;;4.06;100.00
31285;BME280;56605;51.516;6.742;2023-04-08T07:00:03;102273.47;;;3.96;100.00
31285;BME280;56605;51.516;6.742;2023-04-08T07:02:29;102273.28;;;3.99;100.00
31285;BME280;56605;51.516;6.742;2023-04-08T07:04:54;102276.97;;;4.43;100.00
31285;BME280;56605;51.516;6.742;2023-04-08T07:07:19;102270.50;;;4.64;100.00
31285;BME280;56605;51.516;6.742;2023-04-08T07:09:44;102276.06;;;4.59;100.00
31285;BME280;56605;51.516;6.742;2023-04-08T07:12:13;102275.41;;;4.55;100.00
31285;BME280;56605;51.516;6.742;2023-04-08T07:14:38;102267.84;;;4.94;100.00
31285;BME280;56605;51.516;6.742;2023-04-08T07:17:04;102286.56;;;4.91;100.00
31285;BME280;56605;51.516;6.742;2023-04-08T07:19:30;102286.81;;;4.87;100.00
31285;BME280;56605;51.516;6.742;2023-04-08T07:21:55;102286.84;;;5.16;100.00
31285;BME280;56605;51.516;6.742;2023-04-08T07:24:22;102295.06;;;5.11;100.00
31285;BME280;56605;51.516;6.742;2023-04-08T07:26:47;102299.13;;;5.17;100.00
31285;BME280;56605;51.516;6.742;2023-04-08T07:29:13;102299.25;;;4.70;100.00
31285;BME280;56605;51.516;6.742;2023-04-08T07:31:42;102299.97;;;4.57;100.00
31285;BME280;56605;51.516;6.742;2023-04-08T07:34:07;102309.69;;;4.88;100.00
31285;BME280;56605;51.516;6.742;2023-04-08T07:36:32;102308.22;;;5.13;100.00
31285;BME280;56605;51.516;6.742;2023-04-08T07:38:58;102314.00;;;5.34;100.00
31285;BME280;56605;51.516;6.742;2023-04-08T07:41:23;102305.09;;;4.91;100.00
31285;BME280;56605;51.516;6.742;2023-04-08T07:43:48;102305.44;;;4.85;100.00
31285;BME280;56605;51.516;6.742;2023-04-08T07:46:14;102301.31;;;4.95;100.00
31285;BME280;56605;51.516;6.742;2023-04-08T07:48:39;102307.56;;;5.38;100.00
31285;BME280;56605;51.516;6.742;2023-04-08T07:51:06;102313.31;;;5.16;100.00
31285;BME280;56605;51.516;6.742;2023-04-08T07:53:31;102312.16;;;4.91;100.00
31285;BME280;56605;51.516;6.742;2023-04-08T07:55:57;102310.13;;;5.25;100.00
31285;BME280;56605;51.516;6.742;2023-04-08T07:58:22;102312.19;;;5.35;100.00
31285;BME280;56605;51.516;6.742;2023-04-08T08:00:49;102319.38;;;5.76;100.00
31285;BME280;56605;51.516;6.742;2023-04-08T08:03:15;102319.25;;;6.34;100.00
31285;BME280;56605;51.516;6.742;2023-04-08T08:05:40;102322.06;;;6.18;100.00
31285;BME280;56605;51.516;6.742;2023-04-08T08:08:06;102320.03;;;6.22;100.00
31285;BME280;56605;51.516;6.742;2023-04-08T08:10:32;102323.75;;;6.19;100.00
31285;BME280;56605;51.516;6.742;2023-04-08T08:12:57;102324.81;;;6.44;100.00
31285;BME280;56605;51.516;6.742;2023-04-08T08:15:23;102320.31;;;6.32;100.00
31285;BME280;56605;51.516;6.742;2023-04-08T08:17:48;102323.31;;;5.98;100.00
31285;BME280;56605;51.516;6.742;2023-04-08T08:20:13;102323.91;;;5.89;100.00
31285;BME280;56605;51.516;6.742;2023-04-08T08:22:38;102323.97;;;6.44;100.00
31285;BME280;56605;51.516;6.742;2023-04-08T08:25:05;102325.78;;;6.56;100.00
31285;BME280;56605;51.516;6.742;2023-04-08T08:27:31;102328.75;;;6.52;100.00
31285;BME280;56605;51.516;6.742;2023-04-08T08:29:58;102327.56;;;6.43;100.00
31285;BME280;56605;51.516;6.742;2023-04-08T08:32:24;102334.22;;;6.36;100.00
31285;BME280;56605;51.516;6.742;2023-04-08T08:34:49;102330.03;;;7.13;100.00
31285;BME280;56605;51.516;6.742;2023-04-08T08:37:14;102332.56;;;7.14;100.00
31285;BME280;56605;51.516;6.742;2023-04-08T08:39:39;102329.09;;;7.14;100.00
31285;BME280;56605;51.516;6.742;2023-04-08T08:42:05;102332.00;;;6.70;100.00
31285;BME280;56605;51.516;6.742;2023-04-08T08:44:30;102332.94;;;6.56;100.00
31285;BME280;56605;51.516;6.742;2023-04-08T08:46:56;102329.69;;;6.91;100.00
31285;BME280;56605;51.516;6.742;2023-04-08T08:49:21;102336.81;;;6.91;100.00
31285;BME280;56605;51.516;6.742;2023-04-08T08:51:48;102333.53;;;6.46;100.00
31285;BME280;56605;51.516;6.742;2023-04-08T08:54:15;102331.34;;;6.66;100.00
31285;BME280;56605;51.516;6.742;2023-04-08T08:56:41;102333.88;;;6.68;100.00
31285;BME280;56605;51.516;6.742;2023-04-08T08:59:10;102325.88;;;7.08;100.00
31285;BME280;56605;51.516;6.742;2023-04-08T09:04:13;102325.56;;;6.46;100.00
31285;BME280;56605;51.516;6.742;2023-04-08T09:06:40;102325.91;;;6.55;100.00
31285;BME280;56605;51.516;6.742;2023-04-08T09:09:06;102329.59;;;6.93;100.00
31285;BME280;56605;51.516;6.742;2023-04-08T09:11:35;102338.47;;;6.66;100.00
31285;BME280;56605;51.516;6.742;2023-04-08T09:14:01;102337.81;;;6.62;100.00
31285;BME280;56605;51.516;6.742;2023-04-08T09:16:27;102334.03;;;6.79;100.00
31285;BME280;56605;51.516;6.742;2023-04-08T09:18:56;102337.97;;;7.00;100.00
31285;BME280;56605;51.516;6.742;2023-04-08T09:21:32;102339.78;;;7.51;100.00
31285;BME280;56605;51.516;6.742;2023-04-08T09:23:57;102348.19;;;7.71;100.00
31285;BME280;56605;51.516;6.742;2023-04-08T09:26:23;102359.34;;;7.50;100.00
31285;BME280;56605;51.516;6.742;2023-04-08T09:29:03;102360.72;;;7.56;100.00
31285;BME280;56605;51.516;6.742;2023-04-08T09:31:30;102366.06;;;7.56;100.00
31285;BME280;56605;51.516;6.742;2023-04-08T09:33:58;102359.91;;;7.16;100.00
31285;BME280;56605;51.516;6.742;2023-04-08T09:36:24;102361.44;;;7.84;100.00
31285;BME280;56605;51.516;6.742;2023-04-08T09:38:53;102357.44;;;8.16;100.00
31285;BME280;56605;51.516;6.742;2023-04-08T09:41:19;102349.50;;;8.52;100.00
31285;BME280;56605;51.516;6.742;2023-04-08T09:43:55;102354.50;;;8.56;100.00
31285;BME280;56605;51.516;6.742;2023-04-08T09:51:54;102360.00;;;10.17;100.00
31285;BME280;56605;51.516;6.742;2023-04-08T09:54:31;102351.81;;;9.51;100.00
31285;BME280;56605;51.516;6.742;2023-04-08T09:57:04;102352.22;;;8.14;100.00
31285;BME280;56605;51.516;6.742;2023-04-08T09:59:33;102351.19;;;8.28;100.00
31285;BME280;56605;51.516;6.742;2023-04-08T10:02:04;102349.94;;;9.06;100.00
31285;BME280;56605;51.516;6.742;2023-04-08T10:04:31;102339.41;;;9.04;100.00
31285;BME280;56605;51.516;6.742;2023-04-08T10:07:06;102339.34;;;9.51;100.00
31285;BME280;56605;51.516;6.742;2023-04-08T10:09:33;102341.97;;;9.29;100.00
31285;BME280;56605;51.516;6.742;2023-04-08T10:12:00;102337.00;;;8.65;100.00
31285;BME280;56605;51.516;6.742;2023-04-08T10:14:25;102337.13;;;9.11;100.00
31285;BME280;56605;51.516;6.742;2023-04-08T10:17:25;102335.94;;;9.72;100.00
31285;BME280;56605;51.516;6.742;2023-04-08T10:19:59;102346.88;;;9.58;100.00
31285;BME280;56605;51.516;6.742;2023-04-08T10:27:40;102345.22;;;8.62;100.00
31285;BME280;56605;51.516;6.742;2023-04-08T10:32:56;102352.88;;;9.25;100.00
31285;BME280;56605;51.516;6.742;2023-04-08T10:35:37;102354.94;;;9.33;100.00
31285;BME280;56605;51.516;6.742;2023-04-08T10:38:06;102346.66;;;8.91;100.00
31285;BME280;56605;51.516;6.742;2023-04-08T10:40:36;102348.25;;;8.44;100.00
31285;BME280;56605;51.516;6.742;2023-04-08T10:43:03;102343.06;;;8.67;100.00
31285;BME280;56605;51.516;6.742;2023-04-08T10:45:29;102349.06;;;8.82;100.00
31285;BME280;56605;51.516;6.742;2023-04-08T10:47:54;102348.19;;;8.82;100.00
31285;BME280;56605;51.516;6.742;2023-04-08T10:50:20;102334.66;;;8.60;100.00
31285;BME280;56605;51.516;6.742;2023-04-08T10:52:52;102338.91;;;8.38;100.00
31285;BME280;56605;51.516;6.742;2023-04-08T10:55:25;102339.28;;;9.06;100.00
31285;BME280;56605;51.516;6.742;2023-04-08T10:57:51;102345.03;;;9.47;100.00
31285;BME280;56605;51.516;6.742;2023-04-08T11:00:17;102338.34;;;8.71;100.00
31285;BME280;56605;51.516;6.742;2023-04-08T11:02:43;102339.44;;;8.68;100.00
31285;BME280;56605;51.516;6.742;2023-04-08T11:05:09;102338.72;;;8.53;100.00
31285;BME280;56605;51.516;6.742;2023-04-08T11:07:41;102330.09;;;8.62;100.00
31285;BME280;56605;51.516;6.742;2023-04-08T11:10:07;102341.41;;;8.78;100.00
31285;BME280;56605;51.516;6.742;2023-04-08T11:12:34;102330.28;;;8.84;100.00
31285;BME280;56605;51.516;6.742;2023-04-08T11:15:00;102340.50;;;9.02;100.00
31285;BME280;56605;51.516;6.742;2023-04-08T11:17:26;102335.41;;;8.98;100.00
31285;BME280;56605;51.516;6.742;2023-04-08T11:19:52;102335.31;;;9.11;100.00
31285;BME280;56605;51.516;6.742;2023-04-08T11:22:17;102337.88;;;9.36;100.00
31285;BME280;56605;51.516;6.742;2023-04-08T11:24:43;102339.53;;;9.14;100.00
31285;BME280;56605;51.516;6.742;2023-04-08T11:27:09;102341.88;;;8.83;100.00
31285;BME280;56605;51.516;6.742;2023-04-08T11:29:34;102343.34;;;8.87;100.00
31285;BME280;56605;51.516;6.742;2023-04-08T11:32:00;102334.56;;;8.62;100.00
31285;BME280;56605;51.516;6.742;2023-04-08T11:34:26;102329.66;;;8.80;100.00
31285;BME280;56605;51.516;6.742;2023-04-08T11:36:52;102332.81;;;8.85;100.00
31285;BME280;56605;51.516;6.742;2023-04-08T11:39:21;102329.81;;;8.90;100.00
31285;BME280;56605;51.516;6.742;2023-04-08T11:41:47;102329.03;;;9.47;100.00
31285;BME280;56605;51.516;6.742;2023-04-08T11:44:12;102327.81;;;9.39;100.00
31285;BME280;56605;51.516;6.742;2023-04-08T11:46:38;102321.69;;;8.92;100.00
31285;BME280;56605;51.516;6.742;2023-04-08T11:49:06;102338.53;;;8.92;100.00
31285;BME280;56605;51.516;6.742;2023-04-08T11:51:33;102335.34;;;8.87;100.00
31285;BME280;56605;51.516;6.742;2023-04-08T11:54:03;102341.78;;;8.96;100.00
31285;BME280;56605;51.516;6.742;2023-04-08T11:56:28;102344.16;;;9.81;100.00
31285;BME280;56605;51.516;6.742;2023-04-08T11:58:55;102339.22;;;9.64;100.00
31285;BME280;56605;51.516;6.742;2023-04-08T12:01:20;102339.69;;;9.35;100.00
31285;BME280;56605;51.516;6.742;2023-04-08T12:06:20;102341.50;;;9.69;100.00
31285;BME280;56605;51.516;6.742;2023-04-08T12:08:45;102344.91;;;9.83;100.00
31285;BME280;56605;51.516;6.742;2023-04-08T12:11:12;102348.44;;;10.72;100.00
31285;BME280;56605;51.516;6.742;2023-04-08T12:13:41;102342.53;;;10.01;100.00
31285;BME280;56605;51.516;6.742;2023-04-08T12:16:06;102348.53;;;9.93;100.00
31285;BME280;56605;51.516;6.742;2023-04-08T12:18:32;102356.28;;;9.73;100.00
31285;BME280;56605;51.516;6.742;2023-04-08T12:20:57;102346.59;;;9.84;100.00
31285;BME280;56605;51.516;6.742;2023-04-08T12:23:22;102339.69;;;9.81;100.00
31285;BME280;56605;51.516;6.742;2023-04-08T12:25:47;102341.78;;;10.22;100.00
31285;BME280;56605;51.516;6.742;2023-04-08T12:28:13;102346.00;;;10.69;100.00
31285;BME280;56605;51.516;6.742;2023-04-08T12:30:38;102337.06;;;10.80;100.00
31285;BME280;56605;51.516;6.742;2023-04-08T12:33:03;102335.50;;;11.20;100.00
31285;BME280;56605;51.516;6.742;2023-04-08T12:35:29;102342.81;;;11.18;100.00
31285;BME280;56605;51.516;6.742;2023-04-08T12:37:55;102334.81;;;10.96;100.00
31285;BME280;56605;51.516;6.742;2023-04-08T12:40:20;102334.66;;;10.11;100.00
31285;BME280;56605;51.516;6.742;2023-04-08T12:42:46;102334.75;;;10.21;100.00
31285;BME280;56605;51.516;6.742;2023-04-08T12:45:12;102329.28;;;10.22;100.00
31285;BME280;56605;51.516;6.742;2023-04-08T12:47:37;102331.03;;;10.45;100.00
31285;BME280;56605;51.516;6.742;2023-04-08T12:50:03;102325.59;;;10.68;100.00
31285;BME280;56605;51.516;6.742;2023-04-08T12:52:28;102337.72;;;10.50;100.00
31285;BME280;56605;51.516;6.742;2023-04-08T12:54:54;102331.00;;;10.12;100.00
31285;BME280;56605;51.516;6.742;2023-04-08T12:57:19;102328.84;;;10.06;100.00
31285;BME280;56605;51.516;6.742;2023-04-08T12:59:44;102326.00;;;10.19;100.00
31285;BME280;56605;51.516;6.742;2023-04-08T13:02:09;102333.00;;;10.31;100.00
31285;BME280;56605;51.516;6.742;2023-04-08T13:04:35;102331.78;;;10.47;100.00
31285;BME280;56605;51.516;6.742;2023-04-08T13:07:00;102330.69;;;9.94;100.00